Time;durP1;ratioP1;P1;durP2;ratioP2;P2;SDS_P1;SDS_P2;PMS_P1;PMS_P2;Temp;Humidity;BMP_temperature;BMP_pressure;BME280_temperature;BME280_humidity;BME280_pressure;Samples;Min_cycle;Max_cycle;Signal;HPM_P1;HPM_P2
2022/06/12 00:00:30;;;;;;;13.10;3.35;;;;;;;;;;5007503;28;20183;-67
2022/06/12 00:02:57;;;;;;;10.68;3.55;;;;;;;;;;5006930;28;20734;-68
2022/06/12 00:05:25;;;;;;;11.68;3.97;;;;;;;;;;5003748;28;20189;-67
2022/06/12 00:07:51;;;;;;;9.57;3.25;;;;;;;;;;5007073;28;20198;-67
2022/06/12 00:10:16;;;;;;;8.82;3.20;;;;;;;;;;5000198;28;20179;-67
2022/06/12 00:12:45;;;;;;;10.38;3.15;;;;;;;;;;5012703;28;20183;-67
2022/06/12 00:15:16;;;;;;;8.95;2.67;;;;;;;;;;5013108;28;20635;-67
2022/06/12 00:17:43;;;;;;;7.82;2.78;;;;;;;;;;5001472;28;20183;-67
2022/06/12 00:20:12;;;;;;;8.73;2.78;;;;;;;;;;5012674;28;20562;-67
2022/06/12 00:22:38;;;;;;;13.30;2.90;;;;;;;;;;5008098;28;20213;-68
2022/06/12 00:25:06;;;;;;;11.32;2.60;;;;;;;;;;5010039;28;20226;-67
2022/06/12 00:27:32;;;;;;;9.35;2.60;;;;;;;;;;5007444;28;20246;-67
2022/06/12 00:29:57;;;;;;;10.27;2.70;;;;;;;;;;4994743;28;21063;-67
2022/06/12 00:32:24;;;;;;;12.32;2.70;;;;;;;;;;5002939;28;20195;-67
2022/06/12 00:34:52;;;;;;;7.35;2.20;;;;;;;;;;4999401;28;20186;-67
2022/06/12 00:37:20;;;;;;;7.55;2.17;;;;;;;;;;5011930;28;20673;-67
2022/06/12 00:39:47;;;;;;;8.43;2.40;;;;;;;;;;5017741;28;20924;-67
2022/06/12 00:42:26;;;;;;;6.68;2.13;;;;;;;;;;5010986;28;20249;-67
2022/06/12 00:44:54;;;;;;;11.35;2.30;;;;;;;;;;5011363;28;20206;-67
2022/06/12 00:47:20;;;;;;;8.18;2.28;;;;;;;;;;5012075;28;20638;-68
2022/06/12 00:49:52;;;;;;;6.35;2.15;;;;;;;;;;5011385;28;20201;-67
2022/06/12 00:52:37;;;;;;;5.75;1.90;;;;;;;;;;5014026;28;20274;-67
2022/06/12 00:55:10;;;;;;;8.65;2.35;;;;;;;;;;5004393;28;20191;-67
2022/06/12 00:57:36;;;;;;;5.68;2.38;;;;;;;;;;5012046;28;20194;-67
2022/06/12 01:00:11;;;;;;;6.40;2.33;;;;;;;;;;5012241;28;20189;-67
2022/06/12 01:02:36;;;;;;;5.68;2.50;;;;;;;;;;5011291;28;20459;-67
2022/06/12 01:07:53;;;;;;;4.10;1.73;;;;;;;;;;5006012;28;20190;-66
2022/06/12 01:10:21;;;;;;;10.23;1.92;;;;;;;;;;5011281;28;20179;-67
2022/06/12 01:13:16;;;;;;;11.65;2.33;;;;;;;;;;5018515;28;20178;-67
2022/06/12 01:15:49;;;;;;;4.97;1.90;;;;;;;;;;5007652;28;20210;-67
2022/06/12 01:18:21;;;;;;;5.63;2.10;;;;;;;;;;5012500;28;20646;-67
2022/06/12 01:21:25;;;;;;;8.13;2.03;;;;;;;;;;5004812;28;20218;-67
2022/06/12 01:23:55;;;;;;;10.13;1.92;;;;;;;;;;4996971;28;20245;-68
2022/06/12 01:26:45;;;;;;;5.55;1.92;;;;;;;;;;5010499;28;20234;-67
2022/06/12 01:29:27;;;;;;;8.90;2.20;;;;;;;;;;4993119;28;20659;-67
2022/06/12 01:32:11;;;;;;;8.18;2.42;;;;;;;;;;5000715;28;20639;-67
2022/06/12 01:34:52;;;;;;;7.20;2.30;;;;;;;;;;5008309;28;20187;-67
2022/06/12 01:37:26;;;;;;;7.35;1.75;;;;;;;;;;5008166;28;20213;-67
2022/06/12 01:40:27;;;;;;;8.35;2.25;;;;;;;;;;5013752;28;20182;-67
2022/06/12 01:43:04;;;;;;;6.57;2.20;;;;;;;;;;4986139;28;20709;-67
2022/06/12 01:45:55;;;;;;;5.20;2.40;;;;;;;;;;5001935;28;22590;-67
2022/06/12 01:48:48;;;;;;;9.18;2.10;;;;;;;;;;5000629;28;20198;-67
2022/06/12 01:51:23;;;;;;;7.68;2.28;;;;;;;;;;5009138;28;20206;-67
2022/06/12 01:54:09;;;;;;;8.15;2.30;;;;;;;;;;5014719;28;20182;-68
2022/06/12 01:56:45;;;;;;;8.60;2.63;;;;;;;;;;5009425;28;20187;-67
2022/06/12 01:59:20;;;;;;;8.25;3.13;;;;;;;;;;5008409;28;20449;-67
2022/06/12 02:01:58;;;;;;;7.57;2.85;;;;;;;;;;5007696;28;20209;-67
2022/06/12 02:04:38;;;;;;;7.97;2.45;;;;;;;;;;5016690;28;20201;-67
2022/06/12 02:07:10;;;;;;;6.43;2.42;;;;;;;;;;5010829;28;20186;-67
2022/06/12 02:09:41;;;;;;;8.27;2.63;;;;;;;;;;5005562;28;20210;-67
2022/06/12 02:15:05;;;;;;;9.32;3.00;;;;;;;;;;5006335;28;20194;-67
2022/06/12 02:17:34;;;;;;;7.47;2.67;;;;;;;;;;5008938;28;20273;-67
2022/06/12 02:20:03;;;;;;;8.52;2.72;;;;;;;;;;5001002;28;20191;-67
2022/06/12 02:22:32;;;;;;;14.10;3.85;;;;;;;;;;5008496;28;20225;-67
2022/06/12 02:25:19;;;;;;;10.57;4.00;;;;;;;;;;4999557;28;20230;-67
2022/06/12 02:27:50;;;;;;;6.70;3.08;;;;;;;;;;5009585;28;20499;-67
2022/06/12 02:30:22;;;;;;;7.30;2.80;;;;;;;;;;5003342;28;20179;-67
2022/06/12 02:32:56;;;;;;;9.43;2.75;;;;;;;;;;4999004;28;20318;-67
2022/06/12 02:35:32;;;;;;;7.55;3.47;;;;;;;;;;4996636;28;20542;-67
2022/06/12 02:38:07;;;;;;;9.45;3.10;;;;;;;;;;5018077;28;20196;-67
2022/06/12 02:40:39;;;;;;;9.07;3.15;;;;;;;;;;5006616;28;20222;-67
2022/06/12 02:43:12;;;;;;;7.88;3.20;;;;;;;;;;5003429;28;20619;-67
2022/06/12 02:45:44;;;;;;;6.70;3.03;;;;;;;;;;5001116;28;20265;-67
2022/06/12 02:48:09;;;;;;;8.48;3.13;;;;;;;;;;4993815;28;20195;-67
2022/06/12 02:50:44;;;;;;;7.75;2.83;;;;;;;;;;5021668;28;20180;-67
2022/06/12 02:53:22;;;;;;;5.35;2.45;;;;;;;;;;5004294;28;20178;-66
2022/06/12 02:55:57;;;;;;;10.55;3.17;;;;;;;;;;5003289;28;20190;-67
2022/06/12 02:58:37;;;;;;;10.13;2.78;;;;;;;;;;5003952;28;20677;-67
2022/06/12 03:01:15;;;;;;;7.28;2.85;;;;;;;;;;5009078;28;20244;-67
2022/06/12 03:03:56;;;;;;;13.90;3.05;;;;;;;;;;5023129;28;20198;-67
2022/06/12 03:06:26;;;;;;;11.48;2.78;;;;;;;;;;5007644;28;20174;-67
2022/06/12 03:08:55;;;;;;;7.20;2.85;;;;;;;;;;5009164;28;20647;-67
2022/06/12 03:11:26;;;;;;;8.57;3.60;;;;;;;;;;5008475;28;20313;-67
2022/06/12 03:13:53;;;;;;;7.95;2.85;;;;;;;;;;5005950;28;20268;-67
2022/06/12 03:16:28;;;;;;;7.80;3.20;;;;;;;;;;5001412;28;20498;-67
2022/06/12 03:18:56;;;;;;;8.85;2.85;;;;;;;;;;4997572;28;20609;-67
2022/06/12 03:21:21;;;;;;;7.50;2.95;;;;;;;;;;5014750;28;20263;-68
2022/06/12 03:24:12;;;;;;;11.48;3.40;;;;;;;;;;5000789;28;20392;-67
2022/06/12 03:26:46;;;;;;;8.15;3.17;;;;;;;;;;5008342;28;20313;-67
2022/06/12 03:29:26;;;;;;;8.18;3.13;;;;;;;;;;5006179;28;20650;-68
2022/06/12 03:32:19;;;;;;;9.52;3.20;;;;;;;;;;5008141;28;20201;-67
2022/06/12 03:35:02;;;;;;;7.47;2.90;;;;;;;;;;4994667;28;20401;-68
2022/06/12 03:37:57;;;;;;;7.50;3.40;;;;;;;;;;5005841;28;20818;-67
2022/06/12 03:40:31;;;;;;;8.18;3.67;;;;;;;;;;4994560;28;20650;-67
2022/06/12 03:42:56;;;;;;;8.88;3.42;;;;;;;;;;5008666;28;20202;-68
2022/06/12 03:45:31;;;;;;;9.15;3.65;;;;;;;;;;5008629;28;20196;-67
2022/06/12 03:48:12;;;;;;;11.23;3.85;;;;;;;;;;5008519;28;20614;-68
2022/06/12 03:51:04;;;;;;;10.20;3.63;;;;;;;;;;5010262;28;20536;-67
2022/06/12 03:53:57;;;;;;;10.60;3.40;;;;;;;;;;4966574;28;20203;-68
2022/06/12 03:59:23;;;;;;;10.25;3.95;;;;;;;;;;5007962;28;20198;-68
2022/06/12 04:01:50;;;;;;;12.23;4.28;;;;;;;;;;5003316;28;20221;-68
2022/06/12 04:04:18;;;;;;;8.02;3.40;;;;;;;;;;5007338;28;20708;-67
2022/06/12 04:06:45;;;;;;;7.85;3.08;;;;;;;;;;5008304;28;20552;-67
2022/06/12 04:09:21;;;;;;;8.60;3.30;;;;;;;;;;5008276;28;20589;-67
2022/06/12 04:11:59;;;;;;;8.00;3.00;;;;;;;;;;5006528;28;20214;-66
2022/06/12 04:14:31;;;;;;;9.02;3.42;;;;;;;;;;5003753;28;20174;-67
2022/06/12 04:16:59;;;;;;;13.45;2.97;;;;;;;;;;5009068;28;20179;-67
2022/06/12 04:19:27;;;;;;;7.65;3.08;;;;;;;;;;5002231;28;20191;-67
2022/06/12 04:22:03;;;;;;;9.63;3.00;;;;;;;;;;5004366;28;20268;-67
2022/06/12 04:24:31;;;;;;;10.13;3.45;;;;;;;;;;5006634;28;20186;-67
2022/06/12 04:27:07;;;;;;;10.13;2.85;;;;;;;;;;5003734;28;20187;-67
2022/06/12 04:29:38;;;;;;;10.82;2.70;;;;;;;;;;5004490;28;20650;-66
2022/06/12 04:32:07;;;;;;;7.32;2.25;;;;;;;;;;5007069;28;20207;-67
2022/06/12 04:34:38;;;;;;;12.25;2.90;;;;;;;;;;5004984;28;20189;-66
2022/06/12 04:37:20;;;;;;;6.55;2.53;;;;;;;;;;5033304;28;20579;-66
2022/06/12 04:39:47;;;;;;;7.47;2.50;;;;;;;;;;5006013;28;20202;-66
2022/06/12 04:42:15;;;;;;;6.82;2.67;;;;;;;;;;5003284;28;20557;-66
2022/06/12 04:44:41;;;;;;;10.63;2.80;;;;;;;;;;5006706;28;20655;-66
2022/06/12 04:47:07;;;;;;;10.32;2.60;;;;;;;;;;5006023;28;20192;-67
2022/06/12 04:49:35;;;;;;;7.60;2.53;;;;;;;;;;5037830;28;20225;-66
2022/06/12 04:52:04;;;;;;;11.57;2.75;;;;;;;;;;5006687;28;20191;-67
2022/06/12 04:54:30;;;;;;;9.00;2.20;;;;;;;;;;5006660;28;20206;-67
2022/06/12 04:56:56;;;;;;;11.13;2.58;;;;;;;;;;5008288;28;20683;-68
2022/06/12 04:59:21;;;;;;;4.95;2.08;;;;;;;;;;4999303;28;20179;-66
2022/06/12 05:01:48;;;;;;;7.45;2.28;;;;;;;;;;5007966;28;20211;-66
2022/06/12 05:04:15;;;;;;;9.23;2.50;;;;;;;;;;5004893;28;20222;-65
2022/06/12 05:06:41;;;;;;;5.93;1.77;;;;;;;;;;5007882;28;20229;-65
2022/06/12 05:09:08;;;;;;;7.93;2.40;;;;;;;;;;5006546;28;20213;-66
2022/06/12 05:11:34;;;;;;;5.60;1.90;;;;;;;;;;5006498;28;20179;-65
2022/06/12 05:13:59;;;;;;;15.57;2.85;;;;;;;;;;5010427;28;20194;-66
2022/06/12 05:16:37;;;;;;;9.40;2.47;;;;;;;;;;5011446;28;20464;-65
2022/06/12 05:19:05;;;;;;;8.60;2.40;;;;;;;;;;5008673;28;20186;-66
2022/06/12 05:21:31;;;;;;;6.82;2.30;;;;;;;;;;4995300;28;20203;-66
2022/06/12 05:23:57;;;;;;;9.80;2.42;;;;;;;;;;5010520;28;20611;-66
2022/06/12 05:26:23;;;;;;;11.50;2.40;;;;;;;;;;5004013;28;20310;-65
2022/06/12 05:28:50;;;;;;;8.40;2.65;;;;;;;;;;5008914;28;20209;-67
2022/06/12 05:31:16;;;;;;;11.00;2.75;;;;;;;;;;5013020;28;20246;-68
2022/06/12 05:33:42;;;;;;;10.15;2.80;;;;;;;;;;5009873;28;20190;-65
2022/06/12 05:36:08;;;;;;;13.00;2.67;;;;;;;;;;4994088;28;20194;-65
2022/06/12 05:38:33;;;;;;;10.55;3.17;;;;;;;;;;4999800;28;20187;-67
2022/06/12 05:40:59;;;;;;;10.32;2.40;;;;;;;;;;5005974;28;20599;-67
2022/06/12 05:43:25;;;;;;;12.13;3.40;;;;;;;;;;5010675;28;20202;-66
2022/06/12 05:45:50;;;;;;;13.55;3.15;;;;;;;;;;5009916;28;20179;-65
2022/06/12 05:48:18;;;;;;;10.68;3.28;;;;;;;;;;5008416;28;20218;-67
2022/06/12 05:50:47;;;;;;;11.68;2.97;;;;;;;;;;5002977;28;20183;-66
2022/06/12 05:53:14;;;;;;;13.95;3.38;;;;;;;;;;4995237;28;20226;-65
2022/06/12 05:55:40;;;;;;;13.52;3.20;;;;;;;;;;5007135;28;20635;-65
2022/06/12 05:58:05;;;;;;;11.18;3.55;;;;;;;;;;5006563;28;20186;-66
2022/06/12 06:00:31;;;;;;;17.88;3.53;;;;;;;;;;5014594;28;20186;-65
2022/06/12 06:02:57;;;;;;;16.60;3.15;;;;;;;;;;5001765;28;20210;-65
2022/06/12 06:05:23;;;;;;;18.13;3.50;;;;;;;;;;4997437;28;20263;-66
2022/06/12 06:07:48;;;;;;;12.80;2.88;;;;;;;;;;4999810;28;20206;-66
2022/06/12 06:10:22;;;;;;;13.65;3.78;;;;;;;;;;5004094;28;20190;-65
2022/06/12 06:12:47;;;;;;;16.77;3.42;;;;;;;;;;5001491;28;20291;-65
2022/06/12 06:15:13;;;;;;;14.70;3.72;;;;;;;;;;4999958;28;20315;-67
2022/06/12 06:17:39;;;;;;;12.20;3.33;;;;;;;;;;5011184;28;20189;-67
2022/06/12 06:20:06;;;;;;;17.90;3.40;;;;;;;;;;5011976;28;20187;-66
2022/06/12 06:22:32;;;;;;;14.38;3.80;;;;;;;;;;5019276;28;20217;-67
2022/06/12 06:24:58;;;;;;;14.30;3.90;;;;;;;;;;5007791;28;20226;-66
2022/06/12 06:27:23;;;;;;;15.23;3.20;;;;;;;;;;5004638;28;20269;-68
2022/06/12 06:29:48;;;;;;;14.18;3.63;;;;;;;;;;4995634;28;20662;-66
2022/06/12 06:32:14;;;;;;;15.82;3.75;;;;;;;;;;5001830;28;20239;-68
2022/06/12 06:34:39;;;;;;;18.23;3.70;;;;;;;;;;5007647;28;20529;-65
2022/06/12 06:37:08;;;;;;;15.88;3.10;;;;;;;;;;5006737;28;20210;-67
2022/06/12 06:39:34;;;;;;;12.07;3.67;;;;;;;;;;4998204;28;20642;-66
2022/06/12 06:41:59;;;;;;;14.07;3.58;;;;;;;;;;4993275;28;20203;-67
2022/06/12 06:47:09;;;;;;;19.42;3.22;;;;;;;;;;5008185;28;20241;-67
2022/06/12 06:49:35;;;;;;;12.68;3.22;;;;;;;;;;5007865;28;20186;-66
2022/06/12 06:52:00;;;;;;;13.07;3.38;;;;;;;;;;5007488;28;20270;-66
2022/06/12 06:54:26;;;;;;;16.52;3.17;;;;;;;;;;5006154;28;20187;-66
2022/06/12 06:56:52;;;;;;;22.33;3.72;;;;;;;;;;5007163;28;20252;-69
2022/06/12 06:59:18;;;;;;;14.10;3.03;;;;;;;;;;5007048;28;20182;-66
2022/06/12 07:01:44;;;;;;;23.17;4.47;;;;;;;;;;5007682;28;20663;-66
2022/06/12 07:04:09;;;;;;;16.90;3.38;;;;;;;;;;5006342;28;20193;-65
2022/06/12 07:06:35;;;;;;;17.30;3.47;;;;;;;;;;5006568;28;20647;-67
2022/06/12 07:09:00;;;;;;;12.85;3.15;;;;;;;;;;5004897;28;20187;-68
2022/06/12 07:11:27;;;;;;;16.40;3.20;;;;;;;;;;5005388;28;20191;-67
2022/06/12 07:13:53;;;;;;;13.02;3.30;;;;;;;;;;5005012;28;20266;-67
2022/06/12 07:16:20;;;;;;;17.05;4.05;;;;;;;;;;5005659;28;20599;-67
2022/06/12 07:18:45;;;;;;;17.98;3.45;;;;;;;;;;5005899;28;20222;-67
2022/06/12 07:21:11;;;;;;;16.88;3.33;;;;;;;;;;5005717;28;20480;-69
2022/06/12 07:23:38;;;;;;;16.08;3.20;;;;;;;;;;5004697;28;20201;-66
2022/06/12 07:26:07;;;;;;;18.45;3.72;;;;;;;;;;5005676;28;20222;-68
2022/06/12 07:28:36;;;;;;;17.58;3.65;;;;;;;;;;5003766;28;20187;-66
2022/06/12 07:31:04;;;;;;;15.77;3.70;;;;;;;;;;5006377;28;20214;-67
2022/06/12 07:33:29;;;;;;;19.88;4.30;;;;;;;;;;5009065;28;20232;-66
2022/06/12 07:35:55;;;;;;;15.55;2.97;;;;;;;;;;5010313;28;20930;-66
2022/06/12 07:38:25;;;;;;;17.73;3.28;;;;;;;;;;5014843;28;20252;-67
2022/06/12 07:40:55;;;;;;;12.48;3.25;;;;;;;;;;5007169;28;20536;-66
2022/06/12 07:43:22;;;;;;;14.25;3.53;;;;;;;;;;5005369;28;20281;-67
2022/06/12 07:45:48;;;;;;;15.23;3.45;;;;;;;;;;5009097;28;20182;-67
2022/06/12 07:48:14;;;;;;;13.57;3.47;;;;;;;;;;5005517;28;20190;-66
2022/06/12 07:50:41;;;;;;;15.45;3.35;;;;;;;;;;5003720;28;20182;-66
2022/06/12 07:53:08;;;;;;;14.43;2.97;;;;;;;;;;5004255;28;20561;-68
2022/06/12 07:55:34;;;;;;;18.20;3.42;;;;;;;;;;5004650;28;20201;-67
2022/06/12 07:58:00;;;;;;;16.23;4.30;;;;;;;;;;5000620;28;20600;-69
2022/06/12 08:00:26;;;;;;;16.95;3.90;;;;;;;;;;5001303;28;20265;-68
2022/06/12 08:02:51;;;;;;;11.55;3.45;;;;;;;;;;5003184;28;20198;-68
2022/06/12 08:05:19;;;;;;;16.27;3.42;;;;;;;;;;5006623;28;20182;-66
2022/06/12 08:07:44;;;;;;;18.67;3.72;;;;;;;;;;5004938;28;20647;-67
2022/06/12 08:10:11;;;;;;;14.15;3.08;;;;;;;;;;5006417;28;20186;-66
2022/06/12 08:12:40;;;;;;;12.45;3.28;;;;;;;;;;5003478;28;20179;-69
2022/06/12 08:15:09;;;;;;;16.48;3.20;;;;;;;;;;5002898;28;20190;-66
2022/06/12 08:17:34;;;;;;;15.20;3.30;;;;;;;;;;5006936;28;20314;-67
2022/06/12 08:22:44;;;;;;;14.93;3.28;;;;;;;;;;5003913;28;20222;-69
2022/06/12 08:25:10;;;;;;;10.68;2.95;;;;;;;;;;5004886;28;20587;-68
2022/06/12 08:27:36;;;;;;;14.48;3.35;;;;;;;;;;5005154;28;20189;-71
2022/06/12 08:30:03;;;;;;;10.18;2.70;;;;;;;;;;5003894;28;20303;-67
2022/06/12 08:32:29;;;;;;;20.52;3.55;;;;;;;;;;5006411;28;20255;-66
2022/06/12 08:35:00;;;;;;;9.55;3.35;;;;;;;;;;5006655;28;20187;-66
2022/06/12 08:37:32;;;;;;;11.75;2.70;;;;;;;;;;5008282;28;20196;-67
2022/06/12 08:39:58;;;;;;;7.97;2.60;;;;;;;;;;5007159;28;20193;-66
2022/06/12 08:42:31;;;;;;;14.38;3.30;;;;;;;;;;5008201;28;20218;-67
2022/06/12 08:45:06;;;;;;;12.15;3.45;;;;;;;;;;5008467;28;20729;-69
2022/06/12 08:47:52;;;;;;;14.30;3.20;;;;;;;;;;5007967;28;20206;-66
2022/06/12 08:50:56;;;;;;;13.02;2.90;;;;;;;;;;5010052;28;20265;-67
2022/06/12 08:53:45;;;;;;;10.32;2.38;;;;;;;;;;4929425;29;20228;-69
2022/06/12 08:56:17;;;;;;;9.05;2.92;;;;;;;;;;4922147;29;20699;-68
2022/06/12 08:58:54;;;;;;;14.90;3.03;;;;;;;;;;4982738;28;20612;-67
2022/06/12 09:01:19;;;;;;;23.65;3.25;;;;;;;;;;5011466;28;20410;-68
2022/06/12 09:03:49;;;;;;;12.20;2.80;;;;;;;;;;5009623;28;20483;-67
2022/06/12 09:06:41;;;;;;;12.40;2.90;;;;;;;;;;5007847;28;20241;-67
2022/06/12 09:09:16;;;;;;;13.63;3.38;;;;;;;;;;5007350;28;20542;-68
2022/06/12 09:12:15;;;;;;;16.48;3.13;;;;;;;;;;5006415;28;20202;-66
2022/06/12 09:15:18;;;;;;;18.38;2.90;;;;;;;;;;5006917;28;20183;-69
2022/06/12 09:17:48;;;;;;;15.98;2.60;;;;;;;;;;5008096;28;20183;-66
2022/06/12 09:20:46;;;;;;;8.23;2.35;;;;;;;;;;5008936;28;20310;-65
2022/06/12 09:23:26;;;;;;;10.02;2.53;;;;;;;;;;5008558;28;20199;-66
2022/06/12 09:26:13;;;;;;;9.95;2.47;;;;;;;;;;5003640;28;20284;-66
2022/06/12 09:28:41;;;;;;;12.18;2.42;;;;;;;;;;4995557;28;20658;-67
2022/06/12 09:31:18;;;;;;;7.88;2.40;;;;;;;;;;5002564;28;20344;-68
2022/06/12 09:34:00;;;;;;;8.30;1.98;;;;;;;;;;4995718;28;20828;-67
2022/06/12 09:36:37;;;;;;;8.13;2.30;;;;;;;;;;5003671;28;20178;-66
2022/06/12 09:39:35;;;;;;;5.25;1.90;;;;;;;;;;5002320;28;20197;-66
2022/06/12 09:42:22;;;;;;;7.60;1.90;;;;;;;;;;5017316;28;20202;-67
2022/06/12 09:45:21;;;;;;;7.63;1.92;;;;;;;;;;5012043;28;20220;-68
2022/06/12 09:48:30;;;;;;;8.88;2.47;;;;;;;;;;4990923;28;20270;-68
2022/06/12 09:51:13;;;;;;;11.90;1.90;;;;;;;;;;4991629;28;20232;-66
2022/06/12 09:54:16;;;;;;;8.98;2.13;;;;;;;;;;5000581;28;20234;-66
2022/06/12 09:56:46;;;;;;;7.15;1.88;;;;;;;;;;4999000;28;20277;-67
2022/06/12 09:59:18;;;;;;;9.40;2.22;;;;;;;;;;5008352;28;20235;-68
2022/06/12 10:01:49;;;;;;;9.70;2.42;;;;;;;;;;5010737;28;20265;-66
2022/06/12 10:04:18;;;;;;;7.60;2.15;;;;;;;;;;5010596;28;20174;-66
2022/06/12 10:07:15;;;;;;;8.35;2.00;;;;;;;;;;5011069;28;20218;-66
2022/06/12 10:09:49;;;;;;;11.57;2.40;;;;;;;;;;5010791;28;20236;-66
2022/06/12 10:12:30;;;;;;;11.10;2.50;;;;;;;;;;5011059;28;20196;-68
2022/06/12 10:15:01;;;;;;;8.40;2.08;;;;;;;;;;5002667;28;20602;-65
2022/06/12 10:17:41;;;;;;;8.93;2.33;;;;;;;;;;5008118;28;20522;-65
2022/06/12 10:20:18;;;;;;;6.00;2.30;;;;;;;;;;5002857;28;20257;-66
2022/06/12 10:22:47;;;;;;;7.85;2.30;;;;;;;;;;5015466;28;20677;-65
2022/06/12 10:25:21;;;;;;;9.55;2.25;;;;;;;;;;5009005;28;20265;-68
2022/06/12 10:27:48;;;;;;;9.27;2.72;;;;;;;;;;5008222;28;20179;-66
2022/06/12 10:30:40;;;;;;;11.52;2.50;;;;;;;;;;4993917;28;20188;-66
2022/06/12 10:33:22;;;;;;;7.82;1.95;;;;;;;;;;5013252;28;20273;-67
2022/06/12 10:35:53;;;;;;;8.57;1.98;;;;;;;;;;5009267;28;20593;-67
2022/06/12 10:38:21;;;;;;;8.77;2.00;;;;;;;;;;4996298;28;20174;-68
2022/06/12 10:40:53;;;;;;;7.35;2.17;;;;;;;;;;5006168;28;20179;-68
2022/06/12 10:43:43;;;;;;;6.47;1.90;;;;;;;;;;5009983;28;20562;-69
2022/06/12 10:46:08;;;;;;;9.15;2.53;;;;;;;;;;5008578;28;20183;-68
2022/06/12 10:48:35;;;;;;;8.23;2.15;;;;;;;;;;5008122;28;20236;-68
2022/06/12 10:51:34;;;;;;;8.07;2.08;;;;;;;;;;5008526;28;20190;-68
2022/06/12 10:54:19;;;;;;;9.18;2.10;;;;;;;;;;5009225;28;20218;-65
2022/06/12 10:57:03;;;;;;;7.78;1.85;;;;;;;;;;5019141;28;20197;-67
2022/06/12 10:59:34;;;;;;;5.30;1.80;;;;;;;;;;5009780;28;20197;-66
2022/06/12 11:02:19;;;;;;;8.30;2.22;;;;;;;;;;5021113;28;20638;-68
2022/06/12 11:05:11;;;;;;;6.75;1.63;;;;;;;;;;4996851;28;20178;-68
2022/06/12 11:07:53;;;;;;;5.53;2.00;;;;;;;;;;5005603;28;20187;-68
2022/06/12 11:10:21;;;;;;;9.13;1.95;;;;;;;;;;5009501;28;20217;-68
2022/06/12 11:13:04;;;;;;;5.07;1.95;;;;;;;;;;5008490;28;20240;-68
2022/06/12 11:15:36;;;;;;;8.95;1.77;;;;;;;;;;5009097;28;20190;-69
2022/06/12 11:18:09;;;;;;;8.82;2.10;;;;;;;;;;5016464;28;20189;-66
2022/06/12 11:20:49;;;;;;;6.63;1.65;;;;;;;;;;5014522;28;20194;-67
2022/06/12 11:23:29;;;;;;;5.78;1.92;;;;;;;;;;5014982;28;20205;-67
2022/06/12 11:26:10;;;;;;;8.63;1.60;;;;;;;;;;4998939;28;20243;-68
2022/06/12 11:29:12;;;;;;;9.38;2.45;;;;;;;;;;5017206;28;20531;-66
2022/06/12 11:31:50;;;;;;;5.30;1.60;;;;;;;;;;4996869;28;20206;-67
2022/06/12 11:34:35;;;;;;;4.50;1.92;;;;;;;;;;5007552;28;20194;-69
2022/06/12 11:37:10;;;;;;;4.80;2.08;;;;;;;;;;5007199;28;20193;-67
2022/06/12 11:39:38;;;;;;;9.95;1.92;;;;;;;;;;5008932;28;20551;-67
2022/06/12 11:42:23;;;;;;;8.90;2.33;;;;;;;;;;5021465;28;20206;-66
2022/06/12 11:45:16;;;;;;;8.40;2.30;;;;;;;;;;5008174;28;20190;-67
2022/06/12 11:48:00;;;;;;;7.43;2.13;;;;;;;;;;5004484;28;20236;-68
2022/06/12 11:50:53;;;;;;;9.90;2.40;;;;;;;;;;5008233;28;20222;-69
2022/06/12 11:53:37;;;;;;;6.68;2.10;;;;;;;;;;5007915;28;20265;-68
2022/06/12 11:56:15;;;;;;;10.20;1.98;;;;;;;;;;5002460;28;20651;-68
2022/06/12 11:59:02;;;;;;;6.68;1.90;;;;;;;;;;4993479;28;20191;-68
2022/06/12 12:02:05;;;;;;;7.32;2.10;;;;;;;;;;5006296;28;20178;-67
2022/06/12 12:04:46;;;;;;;9.95;2.20;;;;;;;;;;5004541;28;20328;-68
2022/06/12 12:07:34;;;;;;;8.60;2.10;;;;;;;;;;5007862;28;20718;-66
2022/06/12 12:10:27;;;;;;;11.30;2.25;;;;;;;;;;5009599;28;20193;-67
2022/06/12 12:12:59;;;;;;;5.45;2.05;;;;;;;;;;5009819;28;20782;-69
2022/06/12 12:15:35;;;;;;;5.53;2.28;;;;;;;;;;5007772;28;20179;-67
2022/06/12 12:18:05;;;;;;;7.70;1.95;;;;;;;;;;5010394;28;20202;-67
2022/06/12 12:20:38;;;;;;;4.40;1.77;;;;;;;;;;5009915;28;20593;-68
2022/06/12 12:23:25;;;;;;;6.35;1.60;;;;;;;;;;5008636;28;20297;-68
2022/06/12 12:26:21;;;;;;;6.78;1.85;;;;;;;;;;5007864;28;20301;-68
2022/06/12 12:28:51;;;;;;;4.43;1.40;;;;;;;;;;5008339;28;20630;-68
2022/06/12 12:31:20;;;;;;;9.07;2.45;;;;;;;;;;5008945;28;20209;-68
2022/06/12 12:33:48;;;;;;;10.48;2.17;;;;;;;;;;5007531;28;20183;-67
2022/06/12 12:41:55;;;;;;;5.45;1.60;;;;;;;;;;5007227;28;20237;-66
2022/06/12 12:44:37;;;;;;;6.30;1.80;;;;;;;;;;5009081;28;20207;-68
2022/06/12 12:47:15;;;;;;;9.68;1.83;;;;;;;;;;5007686;28;20187;-67
2022/06/12 12:49:40;;;;;;;7.00;1.67;;;;;;;;;;5009037;28;20256;-67
2022/06/12 12:52:15;;;;;;;4.75;1.60;;;;;;;;;;5009136;28;20646;-69
2022/06/12 12:54:57;;;;;;;8.18;1.60;;;;;;;;;;5007501;28;20192;-66
2022/06/12 12:57:39;;;;;;;5.45;1.70;;;;;;;;;;5008004;28;20178;-67
2022/06/12 13:00:07;;;;;;;4.68;1.42;;;;;;;;;;5009526;28;20202;-67
2022/06/12 13:02:45;;;;;;;5.57;1.45;;;;;;;;;;5009977;28;20301;-65
2022/06/12 13:05:21;;;;;;;8.45;1.88;;;;;;;;;;5010449;28;20206;-66
2022/06/12 13:08:01;;;;;;;6.15;1.60;;;;;;;;;;5005836;28;20599;-66
2022/06/12 13:10:46;;;;;;;6.32;1.70;;;;;;;;;;5010020;28;20221;-67
2022/06/12 13:13:39;;;;;;;5.22;1.63;;;;;;;;;;5009932;28;20175;-67
2022/06/12 13:16:23;;;;;;;4.68;1.60;;;;;;;;;;5008050;28;20265;-67
2022/06/12 13:19:05;;;;;;;6.00;1.40;;;;;;;;;;5004414;28;20198;-67
2022/06/12 13:22:06;;;;;;;7.18;1.60;;;;;;;;;;5018298;28;20233;-69
2022/06/12 13:25:04;;;;;;;11.13;1.95;;;;;;;;;;4988052;28;20195;-67
2022/06/12 13:27:34;;;;;;;5.38;1.60;;;;;;;;;;5009608;28;20269;-65
2022/06/12 13:30:00;;;;;;;4.97;1.40;;;;;;;;;;5007959;28;20183;-67
2022/06/12 13:32:34;;;;;;;5.13;1.42;;;;;;;;;;5008524;28;20598;-67
2022/06/12 13:35:06;;;;;;;5.40;1.52;;;;;;;;;;5008676;28;20218;-66
2022/06/12 13:37:36;;;;;;;4.85;1.52;;;;;;;;;;4999918;28;20198;-68
2022/06/12 13:40:24;;;;;;;4.55;1.40;;;;;;;;;;4993905;28;20191;-67
2022/06/12 13:42:49;;;;;;;4.30;1.50;;;;;;;;;;5007910;28;20290;-68
2022/06/12 13:45:20;;;;;;;3.75;1.25;;;;;;;;;;5010123;28;20269;-66
2022/06/12 13:47:46;;;;;;;6.13;1.30;;;;;;;;;;5007461;28;20584;-65
2022/06/12 13:50:20;;;;;;;6.10;1.30;;;;;;;;;;5009453;28;20269;-66
2022/06/12 13:53:01;;;;;;;3.03;1.38;;;;;;;;;;5003679;28;20400;-65
2022/06/12 13:55:44;;;;;;;4.10;1.50;;;;;;;;;;4999249;28;20702;-67
2022/06/12 13:58:20;;;;;;;3.58;1.45;;;;;;;;;;4995785;28;20255;-67
2022/06/12 14:00:48;;;;;;;4.97;1.35;;;;;;;;;;5008224;28;20249;-67
2022/06/12 14:03:47;;;;;;;6.00;1.50;;;;;;;;;;5002511;28;20202;-66
2022/06/12 14:06:14;;;;;;;2.20;1.08;;;;;;;;;;5007328;28;20193;-66
2022/06/12 14:08:42;;;;;;;3.17;1.60;;;;;;;;;;5003595;28;20234;-68
2022/06/12 14:11:21;;;;;;;4.90;1.27;;;;;;;;;;5036459;28;20282;-66
2022/06/12 14:13:47;;;;;;;6.13;1.60;;;;;;;;;;5007851;28;20678;-67
2022/06/12 14:16:20;;;;;;;5.40;1.95;;;;;;;;;;5008836;28;20179;-68
2022/06/12 14:19:01;;;;;;;2.83;1.30;;;;;;;;;;5000163;28;20230;-67
2022/06/12 14:21:36;;;;;;;3.38;1.35;;;;;;;;;;5005407;28;20504;-66
2022/06/12 14:24:26;;;;;;;4.28;1.40;;;;;;;;;;5007268;28;20237;-65
2022/06/12 14:26:52;;;;;;;4.25;1.30;;;;;;;;;;5008123;28;20651;-65
2022/06/12 14:29:36;;;;;;;2.88;1.42;;;;;;;;;;5007726;28;20190;-65
2022/06/12 14:32:10;;;;;;;3.50;1.45;;;;;;;;;;5006538;28;20206;-66
2022/06/12 14:34:35;;;;;;;6.20;1.08;;;;;;;;;;5011143;28;20209;-67
2022/06/12 14:37:02;;;;;;;4.05;1.30;;;;;;;;;;5006969;28;20220;-66
2022/06/12 14:39:34;;;;;;;4.57;1.42;;;;;;;;;;5007278;28;20179;-67
2022/06/12 14:42:10;;;;;;;4.10;1.10;;;;;;;;;;5007394;28;20643;-66
2022/06/12 14:44:37;;;;;;;6.35;1.42;;;;;;;;;;5006182;28;20206;-66
2022/06/12 14:47:24;;;;;;;4.25;1.40;;;;;;;;;;5005490;28;20179;-68
2022/06/12 14:49:52;;;;;;;4.00;1.27;;;;;;;;;;5005605;28;20182;-67
2022/06/12 14:52:23;;;;;;;4.65;1.15;;;;;;;;;;5005040;28;20614;-67
2022/06/12 14:54:53;;;;;;;2.80;0.93;;;;;;;;;;5006965;28;20189;-68
2022/06/12 14:57:20;;;;;;;3.35;1.17;;;;;;;;;;5006617;28;20591;-68
2022/06/12 14:59:46;;;;;;;3.92;1.40;;;;;;;;;;5005207;28;20253;-67
2022/06/12 15:02:20;;;;;;;3.05;1.02;;;;;;;;;;5004734;28;20564;-66
2022/06/12 15:04:46;;;;;;;3.20;1.00;;;;;;;;;;5005723;28;20206;-66
2022/06/12 15:07:12;;;;;;;3.42;1.10;;;;;;;;;;5005354;28;20183;-70
2022/06/12 15:09:38;;;;;;;3.33;1.30;;;;;;;;;;5011637;28;20256;-68
2022/06/12 15:12:04;;;;;;;4.80;1.23;;;;;;;;;;5003781;28;20183;-66
2022/06/12 15:14:30;;;;;;;5.53;1.20;;;;;;;;;;5006077;28;20199;-68
2022/06/12 15:16:55;;;;;;;5.03;1.40;;;;;;;;;;5004275;28;20666;-67
2022/06/12 15:19:21;;;;;;;4.97;1.75;;;;;;;;;;5003856;28;20202;-71
2022/06/12 15:21:46;;;;;;;3.75;1.52;;;;;;;;;;5004645;28;20218;-68
2022/06/12 15:24:18;;;;;;;7.40;1.05;;;;;;;;;;5002517;28;20174;-69
2022/06/12 15:29:46;;;;;;;3.90;1.20;;;;;;;;;;5004885;28;20201;-68
2022/06/12 15:32:14;;;;;;;4.70;1.33;;;;;;;;;;5006289;28;20195;-65
2022/06/12 15:34:40;;;;;;;4.75;1.40;;;;;;;;;;5004301;28;20261;-66
2022/06/12 15:37:05;;;;;;;6.60;1.70;;;;;;;;;;5007148;28;20278;-69
2022/06/12 15:39:31;;;;;;;6.43;2.00;;;;;;;;;;5003550;28;20563;-68